Time;durP1;ratioP1;P1;durP2;ratioP2;P2;SDS_P1;SDS_P2;PMS_P1;PMS_P2;Temp;Humidity;BMP_temperature;BMP_pressure;BME280_temperature;BME280_humidity;BME280_pressure;Samples;Min_cycle;Max_cycle;Signal;HPM_P1;HPM_P2
2021/01/26 00:00:13;;;;;;;13.98;9.07;;;;;;;-1.44;100.00;95595.97;974801;30;20029;-57
2021/01/26 00:00:43;;;;;;;15.35;9.20;;;;;;;-1.46;100.00;95596.09;978348;30;20463;-56
2021/01/26 00:01:14;;;;;;;13.88;8.60;;;;;;;-1.38;100.00;95603.34;974592;30;20056;-58
2021/01/26 00:01:45;;;;;;;13.48;8.68;;;;;;;-1.39;100.00;95606.91;974578;30;20107;-55
2021/01/26 00:02:16;;;;;;;12.65;8.02;;;;;;;-1.40;100.00;95606.03;974588;30;20104;-55
2021/01/26 00:02:47;;;;;;;13.32;8.43;;;;;;;-1.41;100.00;95600.94;971139;30;20037;-54
2021/01/26 00:03:18;;;;;;;16.27;8.80;;;;;;;-1.41;100.00;95599.19;974559;30;20071;-57
2021/01/26 00:03:49;;;;;;;13.00;8.05;;;;;;;-1.47;100.00;95604.00;982011;30;20060;-56
2021/01/26 00:04:20;;;;;;;13.90;8.40;;;;;;;-1.49;100.00;95604.13;982037;30;20032;-55
2021/01/26 00:04:50;;;;;;;13.40;8.60;;;;;;;-1.50;100.00;95612.84;978299;30;20036;-55
2021/01/26 00:05:21;;;;;;;12.48;8.38;;;;;;;-1.41;100.00;95601.78;981794;30;20059;-55
2021/01/26 00:05:52;;;;;;;13.25;9.20;;;;;;;-1.47;100.00;95606.63;978145;30;20129;-55
2021/01/26 00:06:22;;;;;;;15.82;8.90;;;;;;;-1.43;100.00;95597.63;974565;30;20358;-55
2021/01/26 00:06:53;;;;;;;13.07;9.13;;;;;;;-1.41;100.00;95608.75;978322;30;20129;-54
2021/01/26 00:07:24;;;;;;;13.80;8.57;;;;;;;-1.39;100.00;95610.31;978148;30;20028;-55
2021/01/26 00:07:55;;;;;;;13.82;8.55;;;;;;;-1.41;100.00;95611.34;978139;30;20040;-54
2021/01/26 00:08:26;;;;;;;12.38;8.57;;;;;;;-1.40;100.00;95623.44;974680;30;20452;-53
2021/01/26 00:08:57;;;;;;;11.80;8.38;;;;;;;-1.39;100.00;95615.53;981820;30;20032;-55
2021/01/26 00:09:28;;;;;;;13.07;8.93;;;;;;;-1.42;100.00;95614.94;974530;30;20478;-54
2021/01/26 00:09:58;;;;;;;12.10;8.52;;;;;;;-1.43;100.00;95611.50;978153;30;20034;-54
2021/01/26 00:10:29;;;;;;;14.50;8.48;;;;;;;-1.41;100.00;95616.56;985457;30;20491;-56
2021/01/26 00:11:01;;;;;;;12.45;8.32;;;;;;;-1.43;100.00;95618.47;978179;30;20480;-54
2021/01/26 00:11:31;;;;;;;13.05;7.60;;;;;;;-1.46;100.00;95616.91;981767;30;20472;-54
2021/01/26 00:12:02;;;;;;;13.48;9.00;;;;;;;-1.41;100.00;95619.16;974453;30;20091;-55
2021/01/26 00:12:33;;;;;;;14.85;9.00;;;;;;;-1.51;100.00;95616.41;978181;30;20024;-54
2021/01/26 00:13:05;;;;;;;12.80;8.50;;;;;;;-1.47;100.00;95624.84;974614;30;20021;-55
2021/01/26 00:13:36;;;;;;;13.50;8.73;;;;;;;-1.48;100.00;95618.81;978092;30;20029;-54
2021/01/26 00:14:07;;;;;;;14.75;8.35;;;;;;;-1.52;100.00;95619.94;970740;30;20352;-55
2021/01/26 00:14:37;;;;;;;14.50;9.00;;;;;;;-1.49;100.00;95626.72;978457;30;20028;-56
2021/01/26 00:15:09;;;;;;;12.57;8.45;;;;;;;-1.44;100.00;95622.03;975374;30;20025;-55
2021/01/26 00:15:40;;;;;;;14.02;8.60;;;;;;;-1.42;100.00;95627.94;978881;30;20449;-55
2021/01/26 00:16:11;;;;;;;14.73;9.00;;;;;;;-1.40;100.00;95621.66;982447;30;20027;-53
2021/01/26 00:16:42;;;;;;;12.65;8.80;;;;;;;-1.45;100.00;95628.97;971683;30;20410;-55
2021/01/26 00:17:13;;;;;;;14.45;8.93;;;;;;;-1.49;100.00;95619.75;982561;30;20024;-55
2021/01/26 00:17:44;;;;;;;13.60;8.70;;;;;;;-1.45;100.00;95623.78;985939;30;20485;-55
2021/01/26 00:18:14;;;;;;;14.90;8.95;;;;;;;-1.48;100.00;95623.16;975080;30;20029;-58
2021/01/26 00:18:45;;;;;;;13.82;8.82;;;;;;;-1.48;100.00;95625.78;975272;30;20112;-55
2021/01/26 00:19:17;;;;;;;13.77;8.77;;;;;;;-1.44;100.00;95624.63;978981;30;20020;-54
2021/01/26 00:19:48;;;;;;;13.85;9.02;;;;;;;-1.51;100.00;95621.63;978872;30;20020;-54
2021/01/26 00:20:19;;;;;;;14.48;9.98;;;;;;;-1.53;100.00;95618.31;978747;30;20024;-56
2021/01/26 00:20:50;;;;;;;13.63;8.90;;;;;;;-1.46;100.00;95621.28;979007;30;20028;-54
2021/01/26 00:21:20;;;;;;;14.63;9.43;;;;;;;-1.41;100.00;95625.25;975276;30;20019;-56
2021/01/26 00:21:51;;;;;;;12.52;8.23;;;;;;;-1.41;100.00;95627.84;982549;30;20062;-55
2021/01/26 00:22:22;;;;;;;18.23;9.35;;;;;;;-1.41;100.00;95627.00;985974;30;20016;-55
2021/01/26 00:22:53;;;;;;;12.13;8.32;;;;;;;-1.44;100.00;95624.63;982443;30;20024;-54
2021/01/26 00:23:23;;;;;;;12.43;8.13;;;;;;;-1.44;100.00;95625.44;971687;30;20022;-56
2021/01/26 00:23:54;;;;;;;12.52;8.70;;;;;;;-1.47;100.00;95628.25;978853;30;20136;-55
2021/01/26 00:24:25;;;;;;;14.63;8.68;;;;;;;-1.52;100.00;95623.38;982380;30;20044;-55
2021/01/26 00:24:56;;;;;;;14.13;8.45;;;;;;;-1.49;100.00;95627.56;975320;30;20068;-56
2021/01/26 00:25:29;;;;;;;13.13;8.90;;;;;;;-1.44;100.00;95622.03;978872;30;20227;-55
2021/01/26 00:26:00;;;;;;;13.77;8.88;;;;;;;-1.43;100.00;95624.53;979032;30;20017;-55
2021/01/26 00:26:31;;;;;;;13.25;8.40;;;;;;;-1.48;100.00;95625.78;975130;30;20358;-54
2021/01/26 00:27:02;;;;;;;13.32;9.23;;;;;;;-1.49;100.00;95622.34;986104;30;20107;-54
2021/01/26 00:27:33;;;;;;;15.30;8.75;;;;;;;-1.45;100.00;95625.56;986099;30;20027;-53
2021/01/26 00:28:04;;;;;;;14.00;8.80;;;;;;;-1.45;100.00;95617.75;975253;30;20078;-56
2021/01/26 00:28:35;;;;;;;12.88;8.35;;;;;;;-1.45;100.00;95621.16;978615;30;20029;-56
2021/01/26 00:29:08;;;;;;;13.38;8.68;;;;;;;-1.40;100.00;95626.88;979010;30;20366;-56
2021/01/26 00:29:39;;;;;;;13.23;8.90;;;;;;;-1.39;100.00;95623.34;978769;30;20029;-54
2021/01/26 00:30:16;;;;;;;14.48;9.20;;;;;;;-1.44;100.00;95619.41;982572;30;20453;-54
2021/01/26 00:30:47;;;;;;;14.45;9.32;;;;;;;-1.44;100.00;95624.63;978648;30;20047;-53
2021/01/26 00:31:18;;;;;;;13.50;8.68;;;;;;;-1.45;100.00;95621.16;982552;30;20020;-55
2021/01/26 00:31:48;;;;;;;13.75;9.05;;;;;;;-1.46;100.00;95623.88;982354;30;20036;-56
2021/01/26 00:32:20;;;;;;;14.50;8.77;;;;;;;-1.47;100.00;95628.25;982486;30;20090;-55
2021/01/26 00:32:50;;;;;;;13.63;8.95;;;;;;;-1.47;100.00;95630.88;986064;30;20036;-56
2021/01/26 00:33:22;;;;;;;13.05;8.93;;;;;;;-1.49;100.00;95627.56;978777;30;20098;-57
2021/01/26 00:33:53;;;;;;;13.15;9.02;;;;;;;-1.46;100.00;95624.72;971673;30;20037;-55
2021/01/26 00:34:24;;;;;;;12.05;8.23;;;;;;;-1.45;100.00;95625.56;978549;30;20064;-56
2021/01/26 00:34:54;;;;;;;15.38;8.98;;;;;;;-1.44;100.00;95625.44;971400;30;20112;-56
2021/01/26 00:35:28;;;;;;;15.25;8.82;;;;;;;-1.46;100.00;95621.28;982512;30;20123;-55
2021/01/26 00:35:59;;;;;;;13.30;8.60;;;;;;;-1.49;100.00;95622.34;982574;30;20429;-56
2021/01/26 00:36:30;;;;;;;13.02;8.90;;;;;;;-1.45;100.00;95621.16;975246;30;20072;-56
2021/01/26 00:37:00;;;;;;;14.55;8.82;;;;;;;-1.42;100.00;95633.97;975087;30;20048;-55
2021/01/26 00:37:31;;;;;;;13.77;8.35;;;;;;;-1.46;100.00;95624.72;978810;30;20434;-55
2021/01/26 00:38:02;;;;;;;14.25;9.02;;;;;;;-1.45;100.00;95630.75;975311;30;20040;-55
2021/01/26 00:38:32;;;;;;;13.93;8.93;;;;;;;-1.50;100.00;95625.88;975306;30;20108;-56
2021/01/26 00:39:04;;;;;;;14.35;9.57;;;;;;;-1.47;100.00;95624.84;975307;30;20063;-53
2021/01/26 00:39:35;;;;;;;14.75;8.90;;;;;;;-1.53;100.00;95626.13;978858;30;20517;-54
2021/01/26 00:40:09;;;;;;;14.20;9.90;;;;;;;-1.55;100.00;95621.03;978899;30;20028;-54
2021/01/26 00:40:40;;;;;;;15.27;9.15;;;;;;;-1.54;100.00;95632.25;969928;30;20271;-56
2021/01/26 00:41:10;;;;;;;12.68;8.18;;;;;;;-1.53;100.00;95632.16;978751;30;20031;-55
2021/01/26 00:41:41;;;;;;;13.77;8.93;;;;;;;-1.50;100.00;95628.47;973646;30;20053;-54
2021/01/26 00:42:12;;;;;;;13.35;9.20;;;;;;;-1.54;100.00;95629.66;978869;30;20021;-57
2021/01/26 00:42:43;;;;;;;13.27;9.07;;;;;;;-1.57;100.00;95641.13;971661;30;20021;-57
2021/01/26 00:43:14;;;;;;;13.68;8.30;;;;;;;-1.51;100.00;95629.44;982391;30;20112;-54
2021/01/26 00:43:45;;;;;;;13.68;9.32;;;;;;;-1.51;100.00;95629.44;978858;30;20029;-57
2021/01/26 00:44:16;;;;;;;13.48;9.20;;;;;;;-1.48;100.00;95626.63;982604;30;20043;-58
2021/01/26 00:44:46;;;;;;;14.43;9.13;;;;;;;-1.45;100.00;95634.19;986185;30;20411;-55
2021/01/26 00:45:18;;;;;;;12.90;8.75;;;;;;;-1.48;100.00;95633.59;978591;30;20059;-54
2021/01/26 00:45:48;;;;;;;14.70;10.00;;;;;;;-1.56;100.00;95640.16;982509;30;20496;-57
2021/01/26 00:46:19;;;;;;;14.75;9.27;;;;;;;-1.56;100.00;95637.56;978748;30;20226;-54
2021/01/26 00:46:50;;;;;;;14.40;9.27;;;;;;;-1.59;100.00;95629.97;989179;30;20027;-57
2021/01/26 00:47:21;;;;;;;15.02;9.55;;;;;;;-1.55;100.00;95635.78;978512;30;20025;-55
2021/01/26 00:47:52;;;;;;;13.90;8.95;;;;;;;-1.54;100.00;95640.06;978831;30;20033;-56
2021/01/26 00:48:22;;;;;;;13.13;8.82;;;;;;;-1.54;100.00;95645.28;978928;30;20033;-58
2021/01/26 00:48:53;;;;;;;15.02;9.48;;;;;;;-1.56;100.00;95640.16;975211;30;20044;-55
2021/01/26 00:49:24;;;;;;;15.35;9.55;;;;;;;-1.50;100.00;95644.09;982386;30;20039;-57
2021/01/26 00:49:55;;;;;;;14.05;9.65;;;;;;;-1.49;100.00;95637.97;978752;30;20446;-56
2021/01/26 00:50:26;;;;;;;14.10;9.88;;;;;;;-1.54;100.00;95637.47;982480;30;20032;-55
2021/01/26 00:50:57;;;;;;;16.90;9.15;;;;;;;-1.47;100.00;95643.06;986080;30;20470;-53
2021/01/26 00:51:28;;;;;;;14.00;9.27;;;;;;;-1.51;100.00;95650.28;975021;30;20124;-55
2021/01/26 00:51:59;;;;;;;14.73;9.70;;;;;;;-1.48;100.00;95650.06;982385;30;20032;-55
2021/01/26 00:52:29;;;;;;;14.25;9.38;;;;;;;-1.44;100.00;95641.06;975223;30;20054;-55
2021/01/26 00:53:00;;;;;;;13.80;8.82;;;;;;;-1.42;100.00;95646.19;985944;30;20032;-54
2021/01/26 00:53:31;;;;;;;14.05;9.25;;;;;;;-1.47;100.00;95636.06;975037;30;20029;-56
2021/01/26 00:54:02;;;;;;;15.82;9.98;;;;;;;-1.41;100.00;95643.47;978865;30;20032;-55
2021/01/26 00:54:33;;;;;;;14.68;9.80;;;;;;;-1.45;100.00;95644.59;978844;30;20454;-56
2021/01/26 00:55:04;;;;;;;15.90;10.18;;;;;;;-1.43;100.00;95642.75;978833;30;20083;-56
2021/01/26 00:55:38;;;;;;;13.27;9.00;;;;;;;-1.39;100.00;95646.78;982217;30;20028;-54
2021/01/26 00:56:49;;;;;;;14.23;9.00;;;;;;;-1.38;100.00;95651.03;826334;28;20474;-54
2021/01/26 00:57:21;;;;;;;16.42;9.90;;;;;;;-1.40;100.00;95658.13;985807;30;20055;-55
2021/01/26 00:57:52;;;;;;;15.07;9.48;;;;;;;-1.41;100.00;95648.66;987881;30;20036;-54
2021/01/26 00:58:23;;;;;;;15.18;9.18;;;;;;;-1.43;100.00;95657.53;993286;29;20121;-54
2021/01/26 00:58:53;;;;;;;14.75;9.30;;;;;;;-1.40;100.00;95657.31;997418;29;20446;-54
2021/01/26 00:59:24;;;;;;;13.60;9.15;;;;;;;-1.41;100.00;95659.09;989764;30;20090;-54
2021/01/26 00:59:55;;;;;;;13.70;9.52;;;;;;;-1.43;100.00;95660.13;989801;30;20202;-54
2021/01/26 01:00:30;;;;;;;14.15;9.68;;;;;;;-1.47;100.00;95651.69;997315;29;20443;-54
2021/01/26 01:01:02;;;;;;;13.60;9.20;;;;;;;-1.51;100.00;95660.69;989629;30;20039;-54
2021/01/26 01:01:33;;;;;;;15.55;9.25;;;;;;;-1.50;100.00;95659.72;986011;30;20073;-53
2021/01/26 01:02:03;;;;;;;15.85;9.57;;;;;;;-1.41;100.00;95659.09;985289;30;20092;-54
2021/01/26 01:02:34;;;;;;;15.52;9.88;;;;;;;-1.45;100.00;95660.22;993606;29;20381;-54
2021/01/26 01:03:05;;;;;;;16.10;10.88;;;;;;;-1.43;100.00;95660.13;989872;29;20103;-54
2021/01/26 01:03:36;;;;;;;15.73;9.85;;;;;;;-1.47;100.00;95664.72;993679;29;20054;-54
2021/01/26 01:04:07;;;;;;;15.80;10.95;;;;;;;-1.47;100.00;95663.91;978793;30;20041;-54
2021/01/26 01:04:38;;;;;;;16.70;10.80;;;;;;;-1.43;100.00;95660.13;989879;30;20028;-53
2021/01/26 01:05:10;;;;;;;15.75;10.38;;;;;;;-1.45;100.00;95665.44;993364;29;20065;-54
2021/01/26 01:05:41;;;;;;;19.52;11.00;;;;;;;-1.46;100.00;95662.94;990322;29;20023;-54
2021/01/26 01:06:12;;;;;;;17.67;11.88;;;;;;;-1.71;100.00;95628.25;982039;30;20040;-55
2021/01/26 01:06:43;;;;;;;12.65;8.27;;;;;;;-1.45;100.00;95667.22;982440;30;20032;-53
2021/01/26 01:07:15;;;;;;;14.57;9.43;;;;;;;-1.42;100.00;95667.00;985959;30;20039;-53
2021/01/26 01:07:46;;;;;;;15.35;10.52;;;;;;;-1.41;100.00;95673.84;982274;30;20024;-53
2021/01/26 01:08:17;;;;;;;17.15;10.57;;;;;;;-1.39;100.00;95669.41;989752;30;20478;-53
2021/01/26 01:08:47;;;;;;;13.63;8.70;;;;;;;-1.41;100.00;95664.31;1001043;29;20034;-53
2021/01/26 01:09:18;;;;;;;16.05;9.65;;;;;;;-1.42;100.00;95672.22;985956;30;20024;-53
2021/01/26 01:09:49;;;;;;;14.32;9.80;;;;;;;-1.38;100.00;95668.44;989891;30;20080;-53
2021/01/26 01:10:23;;;;;;;16.38;10.55;;;;;;;-1.39;100.00;95672.81;986099;30;20532;-53
2021/01/26 01:10:53;;;;;;;18.13;10.95;;;;;;;-1.39;100.00;95667.63;978762;30;20087;-53
2021/01/26 01:11:24;;;;;;;16.45;9.75;;;;;;;-1.40;100.00;95675.53;978712;30;20500;-53
2021/01/26 01:11:56;;;;;;;15.65;9.68;;;;;;;-1.43;100.00;95680.97;978775;30;20620;-54
2021/01/26 01:12:27;;;;;;;17.40;10.48;;;;;;;-1.46;100.00;95660.34;989775;30;20023;-53
2021/01/26 01:12:57;;;;;;;16.98;10.32;;;;;;;-1.39;100.00;95682.41;997284;29;20019;-53
2021/01/26 01:13:28;;;;;;;15.70;9.45;;;;;;;-1.39;100.00;95672.81;985964;30;20512;-53
2021/01/26 01:13:59;;;;;;;16.38;10.52;;;;;;;-1.41;100.00;95669.50;986181;30;20039;-53
2021/01/26 01:14:30;;;;;;;14.25;9.85;;;;;;;-1.38;100.00;95679.69;986100;30;20398;-53
2021/01/26 01:15:01;;;;;;;14.48;9.63;;;;;;;-1.45;100.00;95673.25;978785;30;20046;-53
2021/01/26 01:15:32;;;;;;;16.95;11.25;;;;;;;-1.47;100.00;95675.13;989672;30;20027;-54
2021/01/26 01:16:03;;;;;;;16.55;10.80;;;;;;;-1.46;100.00;95674.22;986198;30;20483;-53
2021/01/26 01:16:34;;;;;;;17.75;11.23;;;;;;;-1.43;100.00;95676.59;986053;30;20129;-53
2021/01/26 01:17:05;;;;;;;17.52;11.32;;;;;;;-1.43;100.00;95680.97;989727;30;20026;-54
2021/01/26 01:17:36;;;;;;;16.17;10.65;;;;;;;-1.38;100.00;95674.47;989584;30;20022;-53
2021/01/26 01:18:07;;;;;;;17.92;11.00;;;;;;;-1.37;100.00;95686.56;982490;30;20025;-54
2021/01/26 01:18:37;;;;;;;17.58;11.32;;;;;;;-1.44;100.00;95687.94;989893;30;20019;-53
2021/01/26 01:19:08;;;;;;;18.13;11.20;;;;;;;-1.46;100.00;95688.97;993482;29;20492;-55
2021/01/26 01:19:39;;;;;;;17.90;11.48;;;;;;;-1.45;100.00;95675.03;985847;30;20109;-54
2021/01/26 01:20:11;;;;;;;15.82;10.43;;;;;;;-1.46;100.00;95681.16;993488;29;20077;-55
2021/01/26 01:20:42;;;;;;;16.92;10.52;;;;;;;-1.45;100.00;95680.25;978706;30;20021;-53
2021/01/26 01:21:12;;;;;;;19.85;11.73;;;;;;;-1.47;100.00;95682.13;989740;30;20422;-53
2021/01/26 01:21:43;;;;;;;18.17;12.25;;;;;;;-1.45;100.00;95682.84;993194;29;20569;-54
2021/01/26 01:22:14;;;;;;;20.45;13.00;;;;;;;-1.45;100.00;95678.47;986048;30;20031;-53
2021/01/26 01:22:45;;;;;;;18.92;11.88;;;;;;;-1.47;100.00;95677.75;993492;29;20030;-54
2021/01/26 01:23:16;;;;;;;18.65;11.90;;;;;;;-1.42;100.00;95685.25;989629;30;20026;-56
2021/01/26 01:23:47;;;;;;;19.55;11.25;;;;;;;-1.40;100.00;95689.38;989612;30;20482;-54
2021/01/26 01:24:18;;;;;;;16.85;11.13;;;;;;;-1.47;100.00;95692.53;982420;30;20028;-54
2021/01/26 01:24:49;;;;;;;17.73;11.40;;;;;;;-1.42;100.00;95683.44;986149;30;20028;-53
2021/01/26 01:25:20;;;;;;;17.58;11.27;;;;;;;-1.38;100.00;95689.28;982844;30;20020;-54
2021/01/26 01:25:57;;;;;;;18.25;11.07;;;;;;;-1.44;100.00;95690.56;985473;30;20047;-53
2021/01/26 01:26:28;;;;;;;17.33;11.10;;;;;;;-1.41;100.00;95687.75;978258;30;20049;-53
2021/01/26 01:26:59;;;;;;;17.48;10.65;;;;;;;-1.38;100.00;95689.28;993429;29;20077;-53
2021/01/26 01:27:29;;;;;;;17.08;11.20;;;;;;;-1.44;100.00;95689.72;985955;30;20031;-53
2021/01/26 01:28:01;;;;;;;17.52;11.15;;;;;;;-1.40;100.00;95691.16;989552;30;20136;-53
2021/01/26 01:28:32;;;;;;;18.75;11.48;;;;;;;-1.36;100.00;95687.38;993487;29;20509;-54
2021/01/26 01:29:03;;;;;;;16.42;10.60;;;;;;;-1.36;100.00;95690.84;985964;30;20059;-53
2021/01/26 01:29:33;;;;;;;18.70;11.77;;;;;;;-1.40;100.00;95686.78;986034;30;20032;-53
2021/01/26 01:30:05;;;;;;;19.80;11.50;;;;;;;-1.41;100.00;95697.31;993202;29;20045;-55
2021/01/26 01:30:36;;;;;;;18.50;12.38;;;;;;;-1.45;100.00;95691.47;986038;30;20152;-54
2021/01/26 01:31:07;;;;;;;17.77;11.20;;;;;;;-1.45;100.00;95694.09;986001;30;20535;-53
2021/01/26 01:31:38;;;;;;;18.20;11.60;;;;;;;-1.46;100.00;95687.22;986021;30;20086;-53
2021/01/26 01:32:09;;;;;;;17.00;10.65;;;;;;;-1.43;100.00;95691.38;982182;30;20086;-53
2021/01/26 01:32:40;;;;;;;17.73;11.45;;;;;;;-1.39;100.00;95688.44;982397;30;20107;-53
2021/01/26 01:33:11;;;;;;;16.65;11.27;;;;;;;-1.41;100.00;95692.09;982364;30;20107;-53
2021/01/26 01:33:42;;;;;;;15.30;10.80;;;;;;;-1.43;100.00;95693.97;986087;30;20096;-53
2021/01/26 01:34:13;;;;;;;15.77;10.43;;;;;;;-1.44;100.00;95692.34;989496;30;20415;-54
2021/01/26 01:34:44;;;;;;;15.25;10.10;;;;;;;-1.45;100.00;95690.66;997118;29;20471;-53
2021/01/26 01:35:15;;;;;;;16.08;10.85;;;;;;;-1.45;100.00;95690.66;982332;30;20032;-54
2021/01/26 01:35:45;;;;;;;18.17;10.93;;;;;;;-1.44;100.00;95684.53;985974;30;20027;-54
2021/01/26 01:36:17;;;;;;;17.40;11.00;;;;;;;-1.44;100.00;95698.38;989525;30;20277;-53
2021/01/26 01:36:48;;;;;;;18.52;11.95;;;;;;;-1.43;100.00;95691.38;978756;30;20066;-54
2021/01/26 01:37:19;;;;;;;17.45;11.63;;;;;;;-1.44;100.00;95679.31;985954;30;20274;-54
2021/01/26 01:37:50;;;;;;;17.40;11.38;;;;;;;-1.41;100.00;95686.88;982247;30;20036;-53
2021/01/26 01:38:20;;;;;;;16.50;10.18;;;;;;;-1.38;100.00;95692.69;996986;29;20486;-55
2021/01/26 01:38:51;;;;;;;16.65;10.52;;;;;;;-1.37;100.00;95689.16;989666;30;20028;-53
2021/01/26 01:39:22;;;;;;;18.15;10.52;;;;;;;-1.41;100.00;95700.75;986094;30;20592;-55
2021/01/26 01:39:53;;;;;;;18.20;10.35;;;;;;;-1.41;100.00;95689.47;985995;30;20032;-53
2021/01/26 01:40:26;;;;;;;18.33;12.27;;;;;;;-1.42;100.00;95693.88;989662;30;20042;-53
2021/01/26 01:40:56;;;;;;;18.83;11.48;;;;;;;-1.46;100.00;95691.59;985931;30;20036;-53
2021/01/26 01:41:37;;;;;;;20.58;11.88;;;;;;;-1.39;100.00;95698.88;975190;30;20028;-53
2021/01/26 01:42:09;;;;;;;18.88;11.32;;;;;;;-1.42;100.00;95693.06;989546;30;20031;-54
2021/01/26 01:42:40;;;;;;;16.08;10.38;;;;;;;-1.45;100.00;95699.28;985977;30;20027;-53
2021/01/26 01:43:11;;;;;;;18.15;11.18;;;;;;;-1.42;100.00;95699.09;978666;30;20028;-54
2021/01/26 01:43:42;;;;;;;20.70;11.27;;;;;;;-1.40;100.00;95693.78;986114;30;20051;-53
2021/01/26 01:44:13;;;;;;;16.50;11.07;;;;;;;-1.39;100.00;95701.47;985865;30;20088;-54
2021/01/26 01:44:44;;;;;;;16.88;10.77;;;;;;;-1.46;100.00;95697.66;985872;30;20023;-53
2021/01/26 01:45:16;;;;;;;17.10;11.48;;;;;;;-1.45;100.00;95691.47;975125;30;20496;-53
2021/01/26 01:45:47;;;;;;;18.25;11.18;;;;;;;-1.47;100.00;95703.78;982756;30;20064;-53
2021/01/26 01:46:19;;;;;;;17.45;11.38;;;;;;;-1.48;100.00;95703.88;985887;30;20426;-53
2021/01/26 01:46:55;;;;;;;19.02;11.27;;;;;;;-1.44;100.00;95700.16;986598;30;20020;-53
2021/01/26 01:47:29;;;;;;;18.40;10.90;;;;;;;-1.43;100.00;95694.84;982188;30;20116;-53
2021/01/26 01:48:19;;;;;;;17.70;11.25;;;;;;;-1.43;100.00;95707.00;988380;30;20122;-54
2021/01/26 01:48:50;;;;;;;16.92;10.18;;;;;;;-1.43;100.00;95710.44;993089;29;20276;-53
2021/01/26 01:49:28;;;;;;;16.35;11.02;;;;;;;-1.44;100.00;95700.97;985952;30;20334;-56
2021/01/26 01:50:00;;;;;;;18.23;10.77;;;;;;;-1.41;100.00;95705.13;989727;29;20055;-56
2021/01/26 01:50:41;;;;;;;17.45;10.48;;;;;;;-1.46;100.00;95705.47;985964;30;20020;-57
2021/01/26 01:51:15;;;;;;;16.15;10.35;;;;;;;-1.45;100.00;95708.88;989558;30;20529;-56
2021/01/26 01:51:46;;;;;;;16.25;10.23;;;;;;;-1.44;100.00;95711.38;984337;30;20024;-56
2021/01/26 01:52:20;;;;;;;17.63;10.90;;;;;;;-1.48;100.00;95714.31;982240;30;20445;-56
2021/01/26 01:52:56;;;;;;;17.00;10.32;;;;;;;-1.46;100.00;95700.25;982196;30;20647;-56
2021/01/26 01:53:31;;;;;;;16.08;10.55;;;;;;;-1.44;100.00;95706.19;979869;30;20574;-58
2021/01/26 01:54:10;;;;;;;18.63;11.30;;;;;;;-1.43;100.00;95713.06;987716;30;20478;-56
2021/01/26 01:54:42;;;;;;;17.73;11.32;;;;;;;-1.45;100.00;95704.50;978694;30;20524;-56
2021/01/26 01:55:17;;;;;;;17.63;11.15;;;;;;;-1.49;100.00;95710.06;989560;30;20508;-56
2021/01/26 01:55:53;;;;;;;17.30;11.48;;;;;;;-1.48;100.00;95704.75;991434;29;20035;-56
2021/01/26 01:56:27;;;;;;;18.10;11.23;;;;;;;-1.47;100.00;95714.19;991234;29;20276;-56
2021/01/26 01:57:18;;;;;;;18.48;11.13;;;;;;;-1.44;100.00;95703.56;981952;30;20032;-57
2021/01/26 01:57:51;;;;;;;18.73;11.05;;;;;;;-1.44;100.00;95710.56;978141;30;20287;-53
2021/01/26 01:58:27;;;;;;;17.40;11.15;;;;;;;-1.43;100.00;95709.59;985864;30;20035;-56
2021/01/26 01:59:01;;;;;;;16.65;10.27;;;;;;;-1.47;100.00;95716.81;985801;30;20258;-54
2021/01/26 01:59:43;;;;;;;18.23;10.18;;;;;;;-1.54;100.00;95716.41;985904;30;20020;-53
2021/01/26 02:00:15;;;;;;;18.75;11.10;;;;;;;-1.53;100.00;95718.06;989593;30;20253;-55
2021/01/26 02:00:57;;;;;;;18.65;11.43;;;;;;;-1.57;100.00;95716.63;989613;30;20429;-55
2021/01/26 02:01:29;;;;;;;18.48;11.15;;;;;;;-1.53;100.00;95718.06;989564;30;20027;-54
2021/01/26 02:02:02;;;;;;;17.73;11.18;;;;;;;-1.52;100.00;95718.91;985938;30;20093;-54
2021/01/26 02:02:32;;;;;;;20.88;11.65;;;;;;;-1.50;100.00;95716.19;989490;30;20440;-55
2021/01/26 02:03:09;;;;;;;20.35;12.27;;;;;;;-1.57;100.00;95719.22;993290;29;20097;-55
2021/01/26 02:03:41;;;;;;;18.58;11.38;;;;;;;-1.55;100.00;95714.75;989481;30;20092;-56
2021/01/26 02:04:13;;;;;;;18.08;11.35;;;;;;;-1.47;100.00;95718.59;989685;30;20042;-54
2021/01/26 02:04:44;;;;;;;16.10;10.57;;;;;;;-1.45;100.00;95719.31;978650;30;20463;-54
2021/01/26 02:05:15;;;;;;;16.98;11.07;;;;;;;-1.49;100.00;95718.69;985766;30;20054;-55
2021/01/26 02:05:49;;;;;;;19.48;10.88;;;;;;;-1.52;100.00;95713.69;985782;30;20092;-54
2021/01/26 02:06:20;;;;;;;18.38;11.75;;;;;;;-1.54;100.00;95716.41;985835;30;20020;-55
2021/01/26 02:06:54;;;;;;;18.52;11.40;;;;;;;-1.49;100.00;95715.25;982225;30;20021;-55
2021/01/26 02:07:25;;;;;;;17.85;11.88;;;;;;;-1.50;100.00;95717.00;996757;29;20266;-55
2021/01/26 02:07:56;;;;;;;17.63;11.25;;;;;;;-1.45;100.00;95716.69;985780;30;20039;-56
2021/01/26 02:08:54;;;;;;;16.08;10.40;;;;;;;-1.49;100.00;95723.91;986031;30;20027;-55
2021/01/26 02:09:28;;;;;;;17.10;10.25;;;;;;;-1.48;100.00;95714.31;985813;30;20447;-55
2021/01/26 02:09:59;;;;;;;15.35;10.05;;;;;;;-1.53;100.00;95719.84;989413;30;20398;-55
2021/01/26 02:10:29;;;;;;;16.27;10.15;;;;;;;-1.60;100.00;95721.19;993383;29;20041;-56
2021/01/26 02:11:00;;;;;;;15.23;10.48;;;;;;;-1.58;100.00;95724.53;985898;30;20047;-55
2021/01/26 02:11:31;;;;;;;16.70;10.82;;;;;;;-1.62;100.00;95729.13;993107;29;20034;-56
2021/01/26 02:12:03;;;;;;;17.30;10.32;;;;;;;-1.56;100.00;95725.25;985860;30;20035;-55
2021/01/26 02:12:34;;;;;;;16.50;10.65;;;;;;;-1.51;100.00;95720.56;985787;30;20277;-55
2021/01/26 02:13:05;;;;;;;18.10;11.30;;;;;;;-1.54;100.00;95724.19;982249;30;20054;-56
2021/01/26 02:13:35;;;;;;;17.00;10.63;;;;;;;-1.52;100.00;95726.69;989509;30;20023;-56
2021/01/26 02:14:06;;;;;;;17.05;11.30;;;;;;;-1.62;100.00;95715.25;985867;30;20471;-55
2021/01/26 02:14:39;;;;;;;18.38;11.25;;;;;;;-1.53;100.00;95727.66;978516;30;20024;-56
2021/01/26 02:15:10;;;;;;;17.42;10.43;;;;;;;-1.56;100.00;95728.69;979095;30;20488;-56
2021/01/26 02:15:42;;;;;;;16.73;10.98;;;;;;;-1.57;100.00;95731.41;986167;30;20696;-56
2021/01/26 02:16:24;;;;;;;17.25;11.07;;;;;;;-1.55;100.00;95727.75;985973;30;20352;-56
2021/01/26 02:16:55;;;;;;;17.75;11.27;;;;;;;-1.53;100.00;95727.66;993248;29;20502;-55
2021/01/26 02:17:46;;;;;;;16.13;10.82;;;;;;;-1.51;100.00;95736.19;985835;30;20274;-56
2021/01/26 02:18:29;;;;;;;16.98;10.85;;;;;;;-1.55;100.00;95727.75;985822;30;20273;-56
2021/01/26 02:19:10;;;;;;;17.52;10.40;;;;;;;-1.55;100.00;95737.31;986590;29;20028;-55
2021/01/26 02:20:02;;;;;;;19.02;11.40;;;;;;;-1.61;100.00;95742.97;997135;29;20473;-56
2021/01/26 02:20:42;;;;;;;18.65;10.98;;;;;;;-1.60;100.00;95742.03;997185;29;20247;-56
2021/01/26 02:21:29;;;;;;;20.00;11.02;;;;;;;-1.59;100.00;95743.69;989535;30;20318;-56
2021/01/26 02:22:19;;;;;;;18.63;11.73;;;;;;;-1.58;100.00;95741.00;989373;30;20262;-55
2021/01/26 02:22:59;;;;;;;18.83;10.85;;;;;;;-1.60;100.00;95742.88;990857;29;20288;-53
2021/01/26 02:23:49;;;;;;;19.23;11.32;;;;;;;-1.61;100.00;95743.81;993269;29;20288;-53
2021/01/26 02:24:29;;;;;;;;;;;;;;;-1.60;100.00;95748.09;986248;30;20264;-55
2021/01/26 02:25:19;;;;;;;18.65;11.30;;;;;;;-1.65;100.00;95744.13;985881;30;20438;-53
2021/01/26 02:26:11;;;;;;;20.30;11.63;;;;;;;-1.64;100.00;95745.78;990599;29;20490;-53
2021/01/26 02:27:02;;;;;;;19.00;11.48;;;;;;;-1.63;100.00;95747.47;985721;30;20272;-53
2021/01/26 02:27:43;;;;;;;18.95;10.88;;;;;;;-1.68;100.00;95750.38;989501;30;20284;-53
2021/01/26 02:28:24;;;;;;;18.70;10.95;;;;;;;-1.65;100.00;95749.34;985880;29;20517;-55
2021/01/26 02:29:05;;;;;;;20.45;11.38;;;;;;;-1.67;100.00;95749.44;993346;29;20728;-53
2021/01/26 02:29:55;;;;;;;20.10;11.45;;;;;;;-1.69;100.00;95746.09;996986;29;20083;-53
2021/01/26 02:30:27;;;;;;;18.95;11.25;;;;;;;-1.71;100.00;95748.81;993042;29;20593;-54
2021/01/26 02:31:14;;;;;;;19.88;12.13;;;;;;;-1.68;100.00;95745.16;993247;29;20106;-53
2021/01/26 02:31:56;;;;;;;18.92;11.00;;;;;;;-1.64;100.00;95745.78;989461;30;20365;-54
2021/01/26 02:32:41;;;;;;;22.10;12.13;;;;;;;-1.61;100.00;95748.19;989399;30;20132;-54